Home > Products > Valid Products > MTR

000
SAUS45 KLKN 270455
MTRP68
METAR KP68 270453Z AUTO 05005KT 01/M06 A3024 RMK AO1 SLP226
T00111061





000
SAUS45 KLKN 270455
MTRP68
METAR KP68 270453Z AUTO 05005KT 01/M06 A3024 RMK AO1 SLP226
T00111061





000
SAUS45 KLKN 270355
MTRP68
METAR KP68 270353Z AUTO 33006KT 02/M07 A3022 RMK AO1 SLP223
T00221067





000
SAUS45 KLKN 270254
MTRP68
METAR KP68 270253Z AUTO 35009KT 05/M07 A3020 RMK AO1 SLP214
T00501067 53015





000
SAUS45 KLKN 270254
MTRP68
METAR KP68 270253Z AUTO 35009KT 05/M07 A3020 RMK AO1 SLP214
T00501067 53015





000
SAUS45 KLKN 270154
MTRP68
METAR KP68 270153Z AUTO 36013KT 07/M07 A3017 RMK AO1 SLP204
T00671072





000
SAUS45 KLKN 270054
MTRP68
METAR KP68 270053Z AUTO 33016G22KT 09/M08 A3015 RMK AO1 PK WND
35027/0020 SLP194 T00891078





000
SAUS45 KLKN 270054
MTRP68
METAR KP68 270053Z AUTO 33016G22KT 09/M08 A3015 RMK AO1 PK WND
35027/0020 SLP194 T00891078





000
SAUS45 KLKN 262355
MTRP68
METAR KP68 262353Z AUTO 34014G25KT 09/M08 A3014 RMK AO1 SLP186
T00941078 10100 20044 53005





000
SAUS45 KLKN 262355
MTRP68
METAR KP68 262353Z AUTO 34014G25KT 09/M08 A3014 RMK AO1 SLP186
T00941078 10100 20044 53005





000
SAUS45 KLKN 262254
MTRP68
METAR KP68 262253Z AUTO 33015G23KT 09/M07 A3013 RMK AO1 SLP183
T00891072





000
SAUS45 KLKN 262254
MTRP68
METAR KP68 262253Z AUTO 33015G23KT 09/M07 A3013 RMK AO1 SLP183
T00891072





000
SAUS45 KLKN 262154
MTRP68
METAR KP68 262153Z AUTO 36017G27KT 08/M08 A3013 RMK AO1 PK WND
01030/2120 SLP185 T00831078





000
SAUS45 KLKN 262054
MTRP68
METAR KP68 262053Z AUTO 36014G22KT 08/M08 A3012 RMK AO1 PK WND
35026/2021 SLP181 T00781078 51008





000
SAUS45 KLKN 262054
MTRP68
METAR KP68 262053Z AUTO 36014G22KT 08/M08 A3012 RMK AO1 PK WND
35026/2021 SLP181 T00781078 51008





000
SAUS45 KLKN 261955
MTRP68
METAR KP68 261953Z AUTO 34014G24KT 300V010 07/M08 A3012 RMK AO1 PK
WND 34027/1914 SLP182 T00671083





000
SAUS45 KLKN 261855
MTRP68
METAR KP68 261853Z AUTO 32016G23KT 06/M06 A3011 RMK AO1 SLP181
T00561061





000
SAUS45 KLKN 261855
MTRP68
METAR KP68 261853Z AUTO 32016G23KT 06/M06 A3011 RMK AO1 SLP181
T00561061





000
SAUS45 KLKN 261754
MTRP68
METAR KP68 261753Z AUTO 34017G22KT 04/M05 A3010 RMK AO1 PK WND
33028/1654 SLP176 T00441050 10067 21022 53010





000
SAUS45 KLKN 261754
MTRP68
METAR KP68 261753Z AUTO 34017G22KT 04/M05 A3010 RMK AO1 PK WND
33028/1654 SLP176 T00441050 10067 21022 53010





000
SAUS45 KLKN 261654
MTRP68
METAR KP68 261653Z AUTO 34017G23KT 06/M03 A3007 RMK AO1 SLP165
T00561033





000
SAUS45 KLKN 261654
MTRP68
METAR KP68 261653Z AUTO 34017G23KT 06/M03 A3007 RMK AO1 SLP165
T00561033





000
SAUS45 KLKN 261554
MTRP68
METAR KP68 261553Z AUTO 01005KT 03/M02 A3007 RMK AO1 SLP169
T00331022





000
SAUS45 KLKN 261554
MTRP68
METAR KP68 261553Z AUTO 01005KT 03/M02 A3007 RMK AO1 SLP169
T00331022





000
SAUS45 KLKN 261454
MTRP68
METAR KP68 261453Z AUTO 06003KT 01/M03 A3006 RMK AO1 SLP169
T00061028 53022





000
SAUS45 KLKN 261355
MTRP68
METAR KP68 261353Z AUTO 00000KT M01/M03 A3003 RMK AO1 SLP162
T10111033





000
SAUS45 KLKN 261355
MTRP68
METAR KP68 261353Z AUTO 00000KT M01/M03 A3003 RMK AO1 SLP162
T10111033





000
SAUS45 KLKN 261255
MTRP68
METAR KP68 261253Z AUTO 35004KT M01/M03 A3000 RMK AO1 SLP146
T10111033





000
SAUS45 KLKN 261255
MTRP68
METAR KP68 261253Z AUTO 35004KT M01/M03 A3000 RMK AO1 SLP146
T10111033





000
SAUS45 KLKN 261155
MTRP68
METAR KP68 261153Z AUTO 23003KT 00/M02 A2998 RMK AO1 SLP134 60004
70009 T00001022 10022 21006 53014





000
SAUS45 KLKN 261155
MTRP68
METAR KP68 261153Z AUTO 23003KT 00/M02 A2998 RMK AO1 SLP134 60004
70009 T00001022 10022 21006 53014





000
SAUS45 KLKN 261054
MTRP68
METAR KP68 261053Z AUTO 35005KT 00/M01 A2997 RMK AO1 WSHFT 1021
SLP131 P0002 T00001011





000
SAUS45 KLKN 261054
MTRP68
METAR KP68 261053Z AUTO 35005KT 00/M01 A2997 RMK AO1 WSHFT 1021
SLP131 P0002 T00001011





000
SAUS45 KLKN 261039
MTRP68
SPECI KP68 261038Z AUTO 35012KT 00/M01 A2997 RMK AO1 WSHFT 1021
P0002 T00001011





000
SAUS45 KLKN 260954
MTRP68
METAR KP68 260953Z AUTO 22005KT 01/M01 A2993 RMK AO1 SLP117
T00061011





000
SAUS45 KLKN 260855
MTRP68
METAR KP68 260853Z AUTO 08003KT 01/M01 A2994 RMK AO1 SLP120 P0001
60002 T00061006 51007





000
SAUS45 KLKN 260755
MTRP68
METAR KP68 260753Z AUTO 33006KT 01/M01 A2994 RMK AO1 SLP115 P0001
T00111006 400941017





000
SAUS45 KLKN 260755
MTRP68
METAR KP68 260753Z AUTO 33006KT 01/M01 A2994 RMK AO1 SLP115 P0001
T00111006 400941017





000
SAUS45 KLKN 260654
MTRP68
METAR KP68 260653Z AUTO 34005KT 01/M02 A2992 RMK AO1 SLP112
T00111017





000
SAUS45 KLKN 260654
MTRP68
METAR KP68 260653Z AUTO 34005KT 01/M02 A2992 RMK AO1 SLP112
T00111017





000
SAUS45 KLKN 260555
MTRP68
METAR KP68 260553Z AUTO 35006KT 02/M01 A2991 RMK AO1 SLP107 60002
T00171011 10072 20011 51019





000
SAUS45 KLKN 260555
MTRP68
METAR KP68 260553Z AUTO 35006KT 02/M01 A2991 RMK AO1 SLP107 60002
T00171011 10072 20011 51019





000
SAUS45 KLKN 260455
MTRP68
METAR KP68 260453Z AUTO 35006KT 02/M01 A2990 RMK AO1 SLP104
T00221006





000
SAUS45 KLKN 260355
MTRP68
METAR KP68 260353Z AUTO 05005KT 02/M01 A2988 RMK AO1 SLP095
T00221006





000
SAUS45 KLKN 260254
MTRP68
METAR KP68 260253Z AUTO 31009KT 03/M02 A2984 RMK AO1 SLP081 60002
T00331017 51019





000
SAUS45 KLKN 260154
MTRP68
METAR KP68 260153Z AUTO 34010KT 04/M01 A2982 RMK AO1 SLP075
T00441011





000
SAUS45 KLKN 260055
MTRP68
METAR KP68 260053Z AUTO 35013KT 05/00 A2981 RMK AO1 PK WND
34026/0006 SLP073 P0002 T00500000





000
SAUS45 KLKN 252357
MTRP68
REQ RNOMTRP68





000
SAUS45 KLKN 252356 COR
MTRP68
METAR KP68 252353Z AUTO 30015G20KT 07/M02 A2978 RMK AO1 SLP061 60003
T00721022 10094 20044 53009





000
SAUS45 KLKN 252255
MTRP68
METAR KP68 252253Z AUTO 32017G24KT 08/M01 A2975 RMK AO1 SLP056
T00781006





000
SAUS45 KLKN 252255
MTRP68
METAR KP68 252253Z AUTO 32017G24KT 08/M01 A2975 RMK AO1 SLP056
T00781006





000
SAUS45 KLKN 252155
MTRP68
METAR KP68 252153Z AUTO 29013KT 07/02 A2975 RMK AO1 WSHFT 2101
SLP055 P0002 T00720022





000
SAUS45 KLKN 252119
MTRP68
SPECI KP68 252118Z AUTO 28016G22KT 05/01 A2976 RMK AO1 WSHFT 2101
T00500011





000
SAUS45 KLKN 252119
MTRP68
SPECI KP68 252118Z AUTO 28016G22KT 05/01 A2976 RMK AO1 WSHFT 2101
T00500011





000
SAUS45 KLKN 252054
MTRP68
METAR KP68 252053Z AUTO VRB05KT 06/02 A2975 RMK AO1 SLP053 P0001
60001 T00560022 55001





000
SAUS45 KLKN 252054
MTRP68
METAR KP68 252053Z AUTO VRB05KT 06/02 A2975 RMK AO1 SLP053 P0001
60001 T00560022 55001





000
SAUS45 KLKN 251954
MTRP68
METAR KP68 251953Z AUTO 27008KT 07/01 A2973 RMK AO1 WSHFT 1840
SLP041 T00720006





000
SAUS45 KLKN 251954
MTRP68
METAR KP68 251953Z AUTO 27008KT 07/01 A2973 RMK AO1 WSHFT 1840
SLP041 T00720006





000
SAUS45 KLKN 251859
MTRP68
SPECI KP68 251857Z AUTO 33013KT 06/02 A2974 RMK AO1 WSHFT 1840
T00560022





000
SAUS45 KLKN 251859
MTRP68
SPECI KP68 251857Z AUTO 33013KT 06/02 A2974 RMK AO1 WSHFT 1840
T00560022





000
SAUS45 KLKN 251855
MTRP68
METAR KP68 251853Z AUTO 32014KT 06/02 A2974 RMK AO1 PK WND
24030/1836 WSHFT 1830 SLP043 T00610022





000
SAUS45 KLKN 251849
MTRP68
SPECI KP68 251847Z AUTO 32012KT 06/02 A2974 RMK AO1 PK WND
24030/1836 WSHFT 1830 T00560017





000
SAUS45 KLKN 251845
MTRP68
SPECI KP68 251843Z AUTO 31013G30KT 06/02 A2973 RMK AO1 PK WND
24030/1836 WSHFT 1826 T00560017





000
SAUS45 KLKN 251754
MTRP68
METAR KP68 251753Z AUTO 17005KT 07/00 A2975 RMK AO1 SLP041 T00670000
10072 21011 50005





000
SAUS45 KLKN 251754
MTRP68
METAR KP68 251753Z AUTO 17005KT 07/00 A2975 RMK AO1 SLP041 T00670000
10072 21011 50005





000
SAUS45 KLKN 251654
MTRP68
METAR KP68 251653Z AUTO 26010KT 06/M01 A2977 RMK AO1 SLP050
T00561011





000
SAUS45 KLKN 251554
MTRP68
METAR KP68 251553Z AUTO 25010KT 07/M02 A2976 RMK AO1 SLP045
T00671017





000
SAUS45 KLKN 251456 COR
MTRP68
METAR KP68 251453Z AUTO 17014KT 07/M02 A2973 RMK AO1 SLP031
T00671022 56014





000
SAUS45 KLKN 251455 COR
MTRP68
METAR KP68 251453Z AUTO 17014KT 07/M02 A2973 RMK AO1 SLP031
T00671022 56014





000
SAUS45 KLKN 251355
MTRP68
METAR KP68 251353Z AUTO 20008KT 04/M02 A2974 RMK AO1 SLP037
T00391022





000
SAUS45 KLKN 251254
MTRP68
METAR KP68 251253Z AUTO 13011KT 02/M03 A2976 RMK AO1 SLP048
T00221028





000
SAUS45 KLKN 251155
MTRP68
METAR KP68 251153Z AUTO 00000KT 00/M03 A2978 RMK AO1 SLP057 70002
T00001033 10061 21017 58017





000
SAUS45 KLKN 251155
MTRP68
METAR KP68 251153Z AUTO 00000KT 00/M03 A2978 RMK AO1 SLP057 70002
T00001033 10061 21017 58017





000
SAUS45 KLKN 251054
MTRP68
METAR KP68 251053Z AUTO 19005KT M01/M03 A2981 RMK AO1 SLP075
T10111033





000
SAUS45 KLKN 251054
MTRP68
METAR KP68 251053Z AUTO 19005KT M01/M03 A2981 RMK AO1 SLP075
T10111033





000
SAUS45 KLKN 250954
MTRP68
METAR KP68 250953Z AUTO 22005KT M01/M03 A2982 RMK AO1 SLP076
T10061028





000
SAUS45 KLKN 250954
MTRP68
METAR KP68 250953Z AUTO 22005KT M01/M03 A2982 RMK AO1 SLP076
T10061028





000
SAUS45 KLKN 250854
MTRP68
METAR KP68 250853Z AUTO 19003KT 01/M02 A2984 RMK AO1 SLP081
T00111022 58005





000
SAUS45 KLKN 250755
MTRP68
METAR KP68 250753Z AUTO 16003KT 03/M02 A2986 RMK AO1 SLP080
T00281017 401170011





000
SAUS45 KLKN 250656 COR
MTRP68
METAR KP68 250653Z AUTO 34003KT 04/M01 A2987 RMK AO1 SLP082
T00441011





000
SAUS45 KLKN 250656 COR
MTRP68
METAR KP68 250653Z AUTO 34003KT 04/M01 A2987 RMK AO1 SLP082
T00441011





000
SAUS45 KLKN 250655 COR
MTRP68
METAR KP68 250653Z AUTO 34003KT 04/M01 A2987 RMK AO1 SLP082
T00441011





000
SAUS45 KLKN 250655
MTRP68





000
SAUS45 KLKN 250655 COR
MTRP68
METAR KP68 250653Z AUTO 34003KT 04/M01 A2987 RMK AO1 SLP082
T00441011





000
SAUS45 KLKN 250554
MTRP68
METAR KP68 250553Z AUTO 24003KT 06/M01 A2986 RMK AO1 SLP080
T00611006 10111 20056 51009





000
SAUS45 KLKN 250455
MTRP68
METAR KP68 250453Z AUTO 20003KT 06/M01 A2985 RMK AO1 SLP074
T00611006





000
SAUS45 KLKN 250354
MTRP68
METAR KP68 250353Z AUTO 00000KT 07/M02 A2985 RMK AO1 SLP070
T00671022





000
SAUS45 KLKN 250255
MTRP68
METAR KP68 250253Z AUTO 32007KT 08/M02 A2983 RMK AO1 SLP065
T00831017 53006





000
SAUS45 KLKN 250155
MTRP68
METAR KP68 250153Z AUTO 31007KT 09/M01 A2981 RMK AO1 SLP063
T00941011





000
SAUS45 KLKN 250054
MTRP68
METAR KP68 250053Z AUTO 31006KT 10/00 A2981 RMK AO1 SLP062 T01000000





000
SAUS45 KLKN 242355
MTRP68
METAR KP68 242353Z AUTO 28007KT 11/01 A2981 RMK AO1 SLP057 60001
T01110006 10117 20067 50000





000
SAUS45 KLKN 242355
MTRP68
METAR KP68 242353Z AUTO 28007KT 11/01 A2981 RMK AO1 SLP057 60001
T01110006 10117 20067 50000





000
SAUS45 KLKN 242254
MTRP68
METAR KP68 242253Z AUTO 31007KT 08/02 A2981 RMK AO1 SLP062 T00780017





000
SAUS45 KLKN 242254
MTRP68
METAR KP68 242253Z AUTO 31007KT 08/02 A2981 RMK AO1 SLP062 T00780017





000
SAUS45 KLKN 242154
MTRP68
METAR KP68 242153Z AUTO 25007KT 08/03 A2981 RMK AO1 SLP064 T00780028





000
SAUS45 KLKN 242055
MTRP68
METAR KP68 242053Z AUTO 26011KT 09/03 A2981 RMK AO1 SLP066 60001
T00890028 55010





000
SAUS45 KLKN 242055
MTRP68
METAR KP68 242053Z AUTO 26011KT 09/03 A2981 RMK AO1 SLP066 60001
T00890028 55010





000
SAUS45 KLKN 241955
MTRP68
METAR KP68 241953Z AUTO 00000KT 10/03 A2979 RMK AO1 SLP054 T01000028





000
SAUS45 KLKN 241955
MTRP68
METAR KP68 241953Z AUTO 00000KT 10/03 A2979 RMK AO1 SLP054 T01000028





000
SAUS45 KLKN 241854
MTRP68
METAR KP68 241853Z AUTO VRB03KT 08/03 A2982 RMK AO1 SLP062 P0001
T00830033





000
SAUS45 KLKN 241754
MTRP68
METAR KP68 241753Z AUTO 32007KT 07/03 A2984 RMK AO1 SLP076 60001
T00670033 10083 20028 53009





000
SAUS45 KLKN 241655
MTRP68
METAR KP68 241653Z AUTO 35011KT 08/03 A2982 RMK AO1 SLP062 P0001
T00780033





000
SAUS45 KLKN 241555
MTRP68
METAR KP68 241553Z AUTO 20008KT 08/02 A2982 RMK AO1 SLP055 T00830017





000
SAUS45 KLKN 241454
MTRP68
METAR KP68 241453Z AUTO 25014KT 07/01 A2981 RMK AO1 SLP056 T00670011
53011





000
SAUS45 KLKN 241355
MTRP68
METAR KP68 241353Z AUTO 24003KT 04/M01 A2979 RMK AO1 SLP050
T00391006





000
SAUS45 KLKN 241355
MTRP68
METAR KP68 241353Z AUTO 24003KT 04/M01 A2979 RMK AO1 SLP050
T00391006





000
SAUS45 KLKN 241255
MTRP68
METAR KP68 241253Z AUTO 20004KT 03/M01 A2977 RMK AO1 SLP042
T00331006





000
SAUS45 KLKN 241154
MTRP68
METAR KP68 241153Z AUTO 00000KT 04/00 A2977 RMK AO1 SLP037 T00440000
10061 20011 56002





000
SAUS45 KLKN 241154
MTRP68
METAR KP68 241153Z AUTO 00000KT 04/00 A2977 RMK AO1 SLP037 T00440000
10061 20011 56002





000
SAUS45 KLKN 241055
MTRP68
METAR KP68 241053Z AUTO 23005KT 05/00 A2978 RMK AO1 SLP041 T00500000





000
SAUS45 KLKN 241055
MTRP68
METAR KP68 241053Z AUTO 23005KT 05/00 A2978 RMK AO1 SLP041 T00500000





000
SAUS45 KLKN 240955
MTRP68
METAR KP68 240953Z AUTO 22005KT 04/00 A2977 RMK AO1 SLP043 T00440000





000
SAUS45 KLKN 240955
MTRP68
METAR KP68 240953Z AUTO 22005KT 04/00 A2977 RMK AO1 SLP043 T00440000





000
SAUS45 KLKN 240854
MTRP68
METAR KP68 240853Z AUTO 22003KT 02/M03 A2978 RMK AO1 SLP040
T00221028 58013





000
SAUS45 KLKN 240754
MTRP68
METAR KP68 240753Z AUTO 17003KT 04/M02 A2980 RMK AO1 SLP045
T00391022 401831011





000
SAUS45 KLKN 240754
MTRP68
METAR KP68 240753Z AUTO 17003KT 04/M02 A2980 RMK AO1 SLP045
T00391022 401831011





000
SAUS45 KLKN 240654
MTRP68
METAR KP68 240653Z AUTO 20007KT 06/00 A2982 RMK AO1 SLP047 T00560000





000
SAUS45 KLKN 240654
MTRP68
METAR KP68 240653Z AUTO 20007KT 06/00 A2982 RMK AO1 SLP047 T00560000





000
SAUS45 KLKN 240554
MTRP68
METAR KP68 240553Z AUTO 20008KT 05/M01 A2983 RMK AO1 SLP056
T00501011 10144 20050 58007





000
SAUS45 KLKN 240554
MTRP68
METAR KP68 240553Z AUTO 20008KT 05/M01 A2983 RMK AO1 SLP056
T00501011 10144 20050 58007





    US Dept of Commerce
    National Oceanic and Atmospheric Administration
    National Weather Service
    1325 East West Highway
    Silver Spring, MD 20910
    Page Author: NWS Internet Services Team
Disclaimer
Information Quality
Credits
Glossary
Privacy Policy
Freedom of Information Act (FOIA)
About Us
Career Opportunities